Time;durP1;ratioP1;P1;durP2;ratioP2;P2;SDS_P1;SDS_P2;PMS_P1;PMS_P2;Temp;Humidity;BMP_temperature;BMP_pressure;BME280_temperature;BME280_humidity;BME280_pressure;Samples;Min_cycle;Max_cycle;Signal;HPM_P1;HPM_P2
2022/09/06 00:00:25;;;;;;;1.67;1.57;;;;;;;20.38;52.27;98995.34;5135269;27;41823;-78
2022/09/06 00:02:52;;;;;;;1.43;1.20;;;;;;;20.13;52.31;98970.06;5120862;27;43883;-80
2022/09/06 00:05:20;;;;;;;1.40;1.30;;;;;;;20.27;51.99;99003.63;5138098;27;43141;-77
2022/09/06 00:07:48;;;;;;;1.53;1.43;;;;;;;20.21;52.06;98994.31;5120550;27;39537;-80
2022/09/06 00:10:15;;;;;;;1.27;1.17;;;;;;;20.15;52.37;98989.56;5138162;27;41699;-78
2022/09/06 00:12:43;;;;;;;1.37;1.27;;;;;;;19.65;52.13;98919.34;5137562;27;41768;-80
2022/09/06 00:15:12;;;;;;;1.33;1.23;;;;;;;20.06;52.45;98990.47;5138099;27;41124;-79
2022/09/06 00:17:40;;;;;;;1.20;1.17;;;;;;;20.00;52.36;98985.72;5156368;27;40195;-79
2022/09/06 00:20:09;;;;;;;1.17;1.07;;;;;;;19.95;52.58;98979.94;5137831;27;40637;-78
2022/09/06 00:22:36;;;;;;;1.20;1.10;;;;;;;19.89;52.63;98988.63;5138133;27;41798;-80
2022/09/06 00:25:05;;;;;;;1.40;1.30;;;;;;;19.76;52.67;98969.31;5137672;27;41070;-80
2022/09/06 00:27:33;;;;;;;1.40;1.30;;;;;;;19.76;52.70;98983.59;5120785;27;38965;-78
2022/09/06 00:30:00;;;;;;;1.07;0.97;;;;;;;19.64;52.98;98972.22;5156047;27;41856;-77
2022/09/06 00:32:29;;;;;;;1.50;1.30;;;;;;;19.65;53.20;98979.28;5137774;27;41125;-79
2022/09/06 00:34:57;;;;;;;1.33;1.23;;;;;;;19.60;53.08;98981.56;5137149;27;41302;-77
2022/09/06 00:37:24;;;;;;;1.10;1.10;;;;;;;19.57;53.11;98991.75;5156047;27;40028;-77
2022/09/06 00:39:52;;;;;;;1.57;1.47;;;;;;;19.53;53.25;98993.06;5137418;27;41853;-77
2022/09/06 00:42:20;;;;;;;1.47;1.27;;;;;;;19.51;53.51;98998.59;5120602;27;41809;-78
2022/09/06 00:44:50;;;;;;;1.27;1.17;;;;;;;19.49;53.19;98999.72;5155998;27;43272;-79
2022/09/06 00:47:18;;;;;;;1.60;1.50;;;;;;;19.40;53.58;98985.31;5155889;27;40999;-79
2022/09/06 00:49:52;;;;;;;1.67;1.40;;;;;;;19.48;53.79;98990.78;5137673;27;41377;-78
2022/09/06 00:52:20;;;;;;;1.60;1.50;;;;;;;19.36;53.84;98968.66;5137952;27;41930;-78
2022/09/06 00:54:50;;;;;;;2.23;1.50;;;;;;;19.54;54.07;98987.53;5136887;27;41173;-80
2022/09/06 00:57:18;;;;;;;1.57;1.47;;;;;;;19.54;54.09;98987.53;5137515;27;40897;-78
2022/09/06 00:59:48;;;;;;;2.17;1.40;;;;;;;19.56;54.92;98984.69;5135874;27;41886;-79
2022/09/06 01:02:16;;;;;;;2.07;1.87;;;;;;;19.56;55.00;98977.47;5112689;27;43048;-78
2022/09/06 01:04:47;;;;;;;1.67;1.57;;;;;;;19.56;55.38;98985.53;5136331;27;40803;-79
2022/09/06 01:07:27;;;;;;;2.23;1.30;;;;;;;19.56;55.10;98984.69;5119601;27;39230;-79
2022/09/06 01:10:10;;;;;;;1.80;1.70;;;;;;;19.29;54.82;98950.56;5132257;27;41150;-78
2022/09/06 01:12:44;;;;;;;3.90;1.50;;;;;;;19.44;54.74;98981.31;5099511;27;41495;-79
2022/09/06 01:15:25;;;;;;;1.50;1.40;;;;;;;19.52;54.42;98999.44;5126543;27;41226;-79
2022/09/06 01:18:05;;;;;;;1.97;1.43;;;;;;;19.50;54.65;98996.06;5136434;27;38850;-79
2022/09/06 01:20:49;;;;;;;1.70;1.60;;;;;;;19.47;54.59;98991.78;5118762;27;40876;-78
2022/09/06 01:24:08;;;;;;;1.50;1.40;;;;;;;19.42;54.62;98991.38;5150356;27;43828;-79
2022/09/06 01:27:02;;;;;;;1.70;1.60;;;;;;;19.35;54.98;98984.91;5136125;27;41653;-79
2022/09/06 01:29:37;;;;;;;1.70;1.60;;;;;;;19.37;54.71;98991.84;5154506;27;40077;-77
2022/09/06 01:32:12;;;;;;;1.67;1.57;;;;;;;19.35;55.03;98987.59;5134585;27;40739;-78
2022/09/06 01:34:45;;;;;;;3.03;1.40;;;;;;;19.29;55.21;98982.81;5118704;27;41768;-78
2022/09/06 01:37:16;;;;;;;2.13;1.47;;;;;;;19.33;54.97;98997.63;5098743;27;40912;-78
2022/09/06 01:39:43;;;;;;;2.00;1.50;;;;;;;19.32;55.10;98998.63;5123861;27;40676;-78
2022/09/06 01:42:15;;;;;;;2.03;1.83;;;;;;;19.31;54.94;98997.78;5136132;27;41464;-78
2022/09/06 01:44:50;;;;;;;2.03;1.53;;;;;;;19.32;55.14;98998.63;5135605;27;41714;-80
2022/09/06 01:47:25;;;;;;;3.00;1.70;;;;;;;19.33;56.37;98984.22;5132845;27;42343;-79
2022/09/06 01:50:12;;;;;;;2.77;1.60;;;;;;;19.35;56.14;98984.91;5153004;27;42056;-78
2022/09/06 01:52:57;;;;;;;1.90;1.70;;;;;;;19.26;56.60;98961.63;5130698;27;42664;-80
2022/09/06 01:55:32;;;;;;;2.00;1.90;;;;;;;19.37;56.72;98974.88;5135430;27;42452;-79
2022/09/06 01:58:22;;;;;;;1.77;1.67;;;;;;;19.37;56.87;98975.72;5135420;27;41246;-79
2022/09/06 02:00:57;;;;;;;1.60;1.50;;;;;;;19.37;56.78;98980.25;5133114;27;40037;-79
2022/09/06 02:03:32;;;;;;;2.17;1.97;;;;;;;19.34;56.68;98975.16;5118412;27;40614;-79
2022/09/06 02:06:06;;;;;;;2.67;1.70;;;;;;;19.35;57.43;98982.22;5119022;27;41771;-78
2022/09/06 02:08:39;;;;;;;1.90;1.80;;;;;;;19.33;56.95;98989.56;5133309;27;42177;-80
2022/09/06 02:11:08;;;;;;;2.17;1.97;;;;;;;19.31;56.71;98991.56;5136067;27;38783;-80
2022/09/06 02:13:39;;;;;;;1.50;1.40;;;;;;;19.31;56.45;98988.88;5118711;27;40838;-78
2022/09/06 02:16:13;;;;;;;1.97;1.60;;;;;;;19.23;56.31;98972.66;5119194;27;42751;-79
2022/09/06 02:18:44;;;;;;;1.63;1.53;;;;;;;19.29;56.26;98985.47;5134137;27;42995;-79
2022/09/06 02:21:17;;;;;;;1.70;1.60;;;;;;;19.27;55.92;98995.56;5151574;27;40010;-79
2022/09/06 02:23:46;;;;;;;1.57;1.47;;;;;;;19.27;55.85;99001.78;5135541;27;41254;-80
2022/09/06 02:26:19;;;;;;;1.63;1.40;;;;;;;19.25;55.66;99000.22;5136092;27;42786;-78
2022/09/06 02:28:47;;;;;;;1.50;1.40;;;;;;;19.22;55.89;98992.44;5118465;27;42280;-78
2022/09/06 02:31:20;;;;;;;2.50;1.57;;;;;;;19.21;55.54;98985.38;5118576;27;39259;-79
2022/09/06 02:33:49;;;;;;;1.60;1.50;;;;;;;19.18;55.67;98993.72;5135859;27;40692;-79
2022/09/06 02:36:18;;;;;;;1.40;1.30;;;;;;;19.15;55.90;98986.84;5118336;27;43265;-78
2022/09/06 02:38:46;;;;;;;3.90;2.00;;;;;;;19.13;56.51;98977.22;5135204;27;41057;-79
2022/09/06 02:41:17;;;;;;;2.40;1.70;;;;;;;19.10;56.62;98980.19;5135854;27;42015;-78
2022/09/06 02:43:44;;;;;;;2.10;2.00;;;;;;;19.08;56.99;98979.50;5133953;27;41831;-78
2022/09/06 02:46:12;;;;;;;2.00;1.80;;;;;;;19.05;57.03;98974.41;5135668;27;41813;-80
2022/09/06 02:48:42;;;;;;;1.80;1.70;;;;;;;19.05;56.55;98974.41;5118451;27;41981;-79
2022/09/06 02:51:10;;;;;;;2.77;1.93;;;;;;;19.05;56.79;98974.41;5135945;27;40041;-78
2022/09/06 02:53:37;;;;;;;2.00;1.80;;;;;;;19.05;57.06;98979.78;5135688;27;41635;-78
2022/09/06 02:56:06;;;;;;;1.60;1.50;;;;;;;19.06;56.64;98982.31;5118008;27;41881;-79
2022/09/06 02:58:33;;;;;;;1.87;1.77;;;;;;;19.08;56.85;98974.13;5117818;27;41223;-79
2022/09/06 03:01:01;;;;;;;1.90;1.80;;;;;;;19.08;56.87;98971.44;5154194;27;39655;-78
2022/09/06 03:03:29;;;;;;;2.60;1.67;;;;;;;19.11;56.63;98976.53;5136253;27;40808;-78
2022/09/06 03:05:58;;;;;;;2.23;2.03;;;;;;;19.10;56.80;98977.53;5139210;27;41962;-80
2022/09/06 03:08:32;;;;;;;2.10;1.90;;;;;;;19.13;56.85;98969.19;5138961;27;42925;-79
2022/09/06 03:11:00;;;;;;;2.63;1.70;;;;;;;19.15;56.33;98969.88;5122137;27;40005;-78
2022/09/06 03:13:28;;;;;;;1.67;1.57;;;;;;;19.14;56.29;98969.03;5138764;27;42636;-78
2022/09/06 03:15:57;;;;;;;1.63;1.53;;;;;;;19.12;56.10;98972.84;5139022;27;42809;-80
2022/09/06 03:18:28;;;;;;;2.20;2.00;;;;;;;19.14;56.29;98973.56;5138494;27;42386;-80
2022/09/06 03:20:58;;;;;;;1.70;1.60;;;;;;;19.12;56.36;98976.38;5121681;27;38868;-78
2022/09/06 03:23:28;;;;;;;1.70;1.60;;;;;;;19.10;56.54;98982.88;5121240;27;40985;-78
2022/09/06 03:25:56;;;;;;;1.87;1.70;;;;;;;19.10;56.31;98988.25;5138782;27;43324;-77
2022/09/06 03:28:24;;;;;;;2.03;1.70;;;;;;;19.09;56.65;98983.88;5121040;27;41305;-78
2022/09/06 03:30:52;;;;;;;2.87;1.60;;;;;;;19.10;56.72;98983.75;5121498;27;39844;-78
2022/09/06 03:33:21;;;;;;;1.70;1.60;;;;;;;19.12;56.45;98984.44;5120779;27;41879;-80
2022/09/06 03:35:50;;;;;;;4.37;2.17;;;;;;;18.81;57.25;99010.63;5121559;27;45016;-77
2022/09/06 03:38:21;;;;;;;2.60;2.40;;;;;;;19.08;60.26;99038.56;5120758;27;41589;-77
2022/09/06 03:40:49;;;;;;;5.10;2.80;;;;;;;19.09;59.86;98973.13;5138417;27;38943;-79
2022/09/06 03:43:17;;;;;;;3.00;2.70;;;;;;;19.14;60.12;99017.38;5156874;27;41841;-78
2022/09/06 03:45:46;;;;;;;2.80;2.60;;;;;;;19.20;60.42;99058.88;5121235;27;41622;-79
2022/09/06 03:48:14;;;;;;;2.47;2.03;;;;;;;19.25;59.83;99001.06;5138027;27;42921;-81
2022/09/06 03:50:45;;;;;;;2.53;2.33;;;;;;;19.28;59.73;99006.16;5138336;27;38989;-78
2022/09/06 03:53:14;;;;;;;2.33;2.13;;;;;;;19.28;59.15;99002.63;5153730;27;41795;-78
2022/09/06 03:55:47;;;;;;;2.17;2.03;;;;;;;19.36;59.86;98997.34;5120795;27;42968;-78
2022/09/06 03:58:16;;;;;;;2.60;2.37;;;;;;;19.40;59.28;99001.44;5135542;27;42577;-77
2022/09/06 04:00:45;;;;;;;2.43;1.93;;;;;;;19.43;58.88;99017.25;5138238;27;40915;-78
2022/09/06 04:03:12;;;;;;;2.20;2.00;;;;;;;19.44;58.68;99002.81;5120567;27;41012;-77
2022/09/06 04:05:44;;;;;;;2.00;1.80;;;;;;;19.43;58.91;98968.88;5156545;27;42511;-79
2022/09/06 04:08:12;;;;;;;2.23;2.03;;;;;;;19.43;59.39;98973.41;5120436;27;40972;-77
2022/09/06 04:10:40;;;;;;;1.67;1.57;;;;;;;19.42;59.04;98990.53;5120752;27;40260;-78
2022/09/06 04:13:09;;;;;;;2.10;1.90;;;;;;;19.40;58.95;98969.22;5137693;27;42751;-78
2022/09/06 04:15:37;;;;;;;2.93;2.27;;;;;;;19.41;58.82;98986.19;5136922;27;42764;-76
2022/09/06 04:18:05;;;;;;;3.03;2.20;;;;;;;19.40;59.49;98957.63;5119992;27;41501;-78
2022/09/06 04:20:33;;;;;;;3.20;2.40;;;;;;;19.39;59.58;98972.88;5156265;27;41682;-78
2022/09/06 04:23:00;;;;;;;2.40;2.23;;;;;;;19.38;58.75;98987.31;5137611;27;40998;-78
2022/09/06 04:25:28;;;;;;;3.10;2.63;;;;;;;19.40;59.24;98979.94;5137733;27;42399;-77
2022/09/06 04:27:56;;;;;;;2.33;1.80;;;;;;;19.40;59.03;98993.38;5156169;27;43049;-77
2022/09/06 04:30:25;;;;;;;2.73;2.53;;;;;;;19.41;59.24;98981.63;5137685;27;39845;-76
2022/09/06 04:32:53;;;;;;;2.53;2.33;;;;;;;19.42;59.28;98977.94;5136969;27;42157;-77
2022/09/06 04:35:20;;;;;;;2.10;1.90;;;;;;;19.43;59.03;98982.31;5137787;27;41589;-75
2022/09/06 04:37:48;;;;;;;1.60;1.50;;;;;;;19.46;58.62;98984.72;5137552;27;42280;-77
2022/09/06 04:40:16;;;;;;;1.97;1.77;;;;;;;19.47;58.73;98974.81;5119907;27;39154;-77
2022/09/06 04:42:43;;;;;;;1.90;1.80;;;;;;;19.49;58.58;98973.72;5137066;27;40839;-76
2022/09/06 04:45:11;;;;;;;2.50;2.07;;;;;;;19.52;58.16;98965.38;5155972;27;42775;-76
2022/09/06 04:47:41;;;;;;;2.37;2.17;;;;;;;19.55;58.16;98962.34;5120234;27;40956;-76
2022/09/06 04:50:09;;;;;;;2.00;1.80;;;;;;;19.56;58.24;98958.66;5137593;27;39715;-76
2022/09/06 04:52:37;;;;;;;2.10;1.90;;;;;;;19.58;57.96;98956.69;5137752;27;41711;-77
2022/09/06 04:55:05;;;;;;;1.80;1.60;;;;;;;19.60;57.73;98946.66;5119673;27;42852;-76
2022/09/06 04:57:33;;;;;;;2.17;1.97;;;;;;;19.30;57.88;98899.41;5137243;27;42120;-77
2022/09/06 05:00:01;;;;;;;1.70;1.60;;;;;;;19.64;57.75;98956.09;5155708;27;40220;-77
2022/09/06 05:02:28;;;;;;;2.33;1.93;;;;;;;19.65;57.72;98956.94;5137042;27;40688;-78
2022/09/06 05:04:58;;;;;;;2.40;1.93;;;;;;;19.69;57.71;98947.56;5119719;27;43023;-77
2022/09/06 05:07:26;;;;;;;1.83;1.73;;;;;;;19.66;57.86;98937.97;5155525;27;43193;-77
2022/09/06 05:09:53;;;;;;;3.30;2.67;;;;;;;19.68;58.04;98935.97;5136933;27;41041;-79
2022/09/06 05:12:21;;;;;;;3.10;2.50;;;;;;;19.64;58.91;98920.31;5137105;27;40178;-78
2022/09/06 05:14:49;;;;;;;2.93;2.30;;;;;;;19.71;59.13;98946.44;5155177;27;43836;-77
2022/09/06 05:17:17;;;;;;;2.80;2.40;;;;;;;19.71;59.13;98954.50;5119394;27;41226;-77
2022/09/06 05:19:44;;;;;;;2.73;2.07;;;;;;;19.69;58.46;98952.94;5118966;27;40314;-78
2022/09/06 05:22:14;;;;;;;2.33;2.07;;;;;;;19.78;58.63;98961.97;5119447;27;40706;-79
2022/09/06 05:24:41;;;;;;;2.40;1.93;;;;;;;19.80;58.31;98976.06;5136412;27;42622;-78
2022/09/06 05:27:11;;;;;;;3.77;2.27;;;;;;;19.85;58.60;98979.16;5136126;27;43857;-78
2022/09/06 05:29:39;;;;;;;2.57;2.37;;;;;;;19.83;58.93;98971.25;5154654;27;40056;-77
2022/09/06 05:32:07;;;;;;;3.13;2.80;;;;;;;19.88;59.17;98968.09;5135983;27;40938;-78
2022/09/06 05:34:34;;;;;;;3.40;2.10;;;;;;;19.93;58.77;98957.72;5118973;27;42947;-77
2022/09/06 05:37:02;;;;;;;4.83;2.57;;;;;;;19.99;58.78;98970.56;5155155;27;43176;-76
2022/09/06 05:39:31;;;;;;;2.53;2.33;;;;;;;20.05;58.25;98981.56;5135941;27;39230;-76
2022/09/06 05:42:00;;;;;;;3.83;2.40;;;;;;;20.09;58.37;98965.97;5136301;27;41660;-78
2022/09/06 05:44:27;;;;;;;3.27;2.63;;;;;;;20.11;58.82;98958.59;5119022;27;43931;-77
2022/09/06 05:46:55;;;;;;;4.10;2.80;;;;;;;20.13;59.05;98961.97;5136277;27;42148;-78
2022/09/06 05:49:23;;;;;;;3.20;2.50;;;;;;;20.15;59.20;98965.38;5136125;27;40031;-76
2022/09/06 05:51:51;;;;;;;3.40;2.47;;;;;;;20.19;58.89;98965.88;5119045;27;42281;-76
2022/09/06 05:54:19;;;;;;;3.33;2.67;;;;;;;20.21;58.46;98970.13;5135973;27;44081;-75
2022/09/06 05:56:48;;;;;;;3.23;2.50;;;;;;;20.17;58.27;98943.69;5135690;27;41594;-75
2022/09/06 05:59:16;;;;;;;2.83;2.57;;;;;;;20.32;58.49;98964.50;5135570;27;41841;-77
2022/09/06 06:01:49;;;;;;;2.50;2.30;;;;;;;20.38;58.65;98971.16;5118778;27;41542;-74
2022/09/06 06:04:18;;;;;;;2.83;2.63;;;;;;;20.44;58.85;98963.28;5153380;27;42627;-75
2022/09/06 06:06:47;;;;;;;3.63;2.73;;;;;;;20.53;58.58;98968.72;5135869;27;42301;-76
2022/09/06 06:09:16;;;;;;;4.80;2.67;;;;;;;20.60;58.29;98969.81;5135936;27;40268;-76
2022/09/06 06:11:44;;;;;;;3.23;2.47;;;;;;;20.67;58.77;98973.53;5135790;27;41811;-76
2022/09/06 06:14:13;;;;;;;3.53;2.60;;;;;;;20.75;58.60;98979.00;5135517;27;42804;-77
2022/09/06 06:16:41;;;;;;;2.30;2.10;;;;;;;20.81;58.62;98989.13;5118526;27;41343;-77
2022/09/06 06:19:09;;;;;;;2.23;2.00;;;;;;;20.85;58.39;98977.06;5135544;27;40079;-77
2022/09/06 06:21:37;;;;;;;2.50;2.30;;;;;;;20.63;58.33;98927.28;5135524;27;42463;-76
2022/09/06 06:24:06;;;;;;;2.40;2.20;;;;;;;20.72;58.29;98952.41;5153576;27;43005;-77
2022/09/06 06:26:35;;;;;;;2.50;2.30;;;;;;;20.90;57.86;98980.09;5118360;27;41162;-77
2022/09/06 06:29:06;;;;;;;3.80;2.50;;;;;;;20.92;57.92;98986.19;5118263;27;40443;-76
2022/09/06 06:31:37;;;;;;;5.40;2.70;;;;;;;20.97;57.92;98983.88;5132667;27;41742;-77
2022/09/06 06:34:05;;;;;;;2.40;2.20;;;;;;;21.02;57.89;98986.91;5133554;27;43833;-75
2022/09/06 06:36:34;;;;;;;3.63;2.47;;;;;;;21.04;57.78;98990.28;5135749;27;41608;-76
2022/09/06 06:39:03;;;;;;;2.33;2.13;;;;;;;21.06;58.13;98990.97;5134281;27;40263;-77
2022/09/06 06:41:32;;;;;;;2.27;2.07;;;;;;;21.10;57.79;98992.38;5135144;27;42742;-77
2022/09/06 06:44:01;;;;;;;3.13;2.60;;;;;;;21.22;57.98;98989.44;5134980;27;42911;-77
2022/09/06 06:46:31;;;;;;;2.40;2.20;;;;;;;21.40;57.44;98995.56;5134898;27;43718;-77
2022/09/06 06:49:00;;;;;;;2.53;2.33;;;;;;;21.69;56.76;99006.81;5117633;27;39970;-76
2022/09/06 06:51:31;;;;;;;3.93;2.57;;;;;;;22.00;56.40;99003.59;5118116;27;40667;-77
2022/09/06 06:53:59;;;;;;;2.53;2.30;;;;;;;22.16;55.84;99009.84;5134800;27;41489;-76
2022/09/06 06:56:28;;;;;;;2.47;2.27;;;;;;;22.29;55.46;99006.69;5134800;27;42070;-75
2022/09/06 06:58:58;;;;;;;2.73;2.50;;;;;;;22.44;55.00;99007.72;5153684;27;39974;-76
2022/09/06 07:01:28;;;;;;;2.90;2.37;;;;;;;22.50;55.20;99007.03;5153623;27;42772;-76
2022/09/06 07:03:56;;;;;;;2.70;2.50;;;;;;;22.53;54.60;99012.09;5134947;27;42708;-76
2022/09/06 07:06:28;;;;;;;2.67;2.47;;;;;;;22.57;54.31;99015.31;5153698;27;42190;-76
2022/09/06 07:08:57;;;;;;;2.87;2.63;;;;;;;22.61;54.43;99011.28;5117873;27;40070;-78
2022/09/06 07:11:25;;;;;;;4.30;2.80;;;;;;;23.14;53.40;99016.13;5134733;27;42791;-77
2022/09/06 07:13:53;;;;;;;2.70;2.47;;;;;;;23.48;52.08;99020.47;5117609;27;42889;-77
2022/09/06 07:16:23;;;;;;;5.03;2.70;;;;;;;23.75;52.07;99008.38;5135030;27;42965;-77
2022/09/06 07:18:52;;;;;;;3.20;2.70;;;;;;;24.26;51.31;99039.41;5135226;27;40130;-76
2022/09/06 07:21:25;;;;;;;2.57;2.37;;;;;;;24.55;49.57;99036.00;5117567;27;41764;-75
2022/09/06 07:23:54;;;;;;;2.53;2.13;;;;;;;24.62;49.19;99043.22;5151731;27;42526;-76
2022/09/06 07:26:23;;;;;;;3.30;2.60;;;;;;;24.62;49.22;99037.81;5117362;27;41240;-76
2022/09/06 07:28:53;;;;;;;2.47;2.20;;;;;;;24.77;49.55;99039.72;5134958;27;40369;-77
2022/09/06 07:31:21;;;;;;;4.97;2.40;;;;;;;24.92;48.91;99044.19;5134626;27;40643;-77
2022/09/06 07:33:49;;;;;;;2.77;2.23;;;;;;;25.08;48.65;99043.22;5134075;27;42808;-77
2022/09/06 07:36:16;;;;;;;3.30;2.70;;;;;;;25.30;48.45;99055.88;5134242;27;42660;-76
2022/09/06 07:38:48;;;;;;;3.50;2.10;;;;;;;25.58;47.70;99057.97;5134642;27;41286;-77
2022/09/06 07:41:19;;;;;;;3.33;2.43;;;;;;;25.82;47.05;99054.16;5153233;27;41678;-77
2022/09/06 07:43:47;;;;;;;2.23;2.03;;;;;;;26.04;46.23;99053.19;5134493;27;41764;-78
2022/09/06 07:46:17;;;;;;;2.27;2.10;;;;;;;26.33;46.11;99055.03;5134523;27;41177;-78
2022/09/06 07:48:46;;;;;;;3.90;2.63;;;;;;;26.92;44.89;99063.78;5153241;27;40106;-77
2022/09/06 07:51:16;;;;;;;2.30;2.10;;;;;;;27.50;43.35;99067.19;5138138;27;40740;-77
2022/09/06 07:53:49;;;;;;;3.37;2.67;;;;;;;28.78;41.88;99061.97;5137790;27;41698;-77
2022/09/06 07:56:20;;;;;;;2.40;1.87;;;;;;;30.34;38.77;99079.38;5134985;27;42143;-78
2022/09/06 07:58:49;;;;;;;3.33;2.30;;;;;;;30.89;37.58;99088.78;5136499;27;40650;-80
2022/09/06 08:01:29;;;;;;;2.07;1.87;;;;;;;31.52;36.45;99105.16;5137588;27;40725;-76
2022/09/06 08:03:59;;;;;;;2.67;2.47;;;;;;;32.04;35.57;99108.41;5137684;27;43507;-77
2022/09/06 08:06:27;;;;;;;2.10;2.00;;;;;;;31.90;36.00;99112.41;5120614;27;42397;-78
2022/09/06 08:08:56;;;;;;;2.70;2.10;;;;;;;31.63;35.22;99104.41;5120760;27;40214;-79
2022/09/06 08:11:27;;;;;;;2.80;2.40;;;;;;;31.85;35.35;99112.22;5137743;27;40431;-77
2022/09/06 08:13:56;;;;;;;2.40;2.20;;;;;;;31.91;35.08;99112.16;5137614;27;43485;-78
2022/09/06 08:16:26;;;;;;;2.10;2.00;;;;;;;32.26;34.43;99117.91;5137666;27;42192;-76
2022/09/06 08:18:56;;;;;;;2.40;2.20;;;;;;;32.41;33.51;99126.56;5155846;27;42647;-77
2022/09/06 08:21:25;;;;;;;2.43;2.00;;;;;;;32.27;33.85;99125.03;5137420;27;40444;-77
2022/09/06 08:23:54;;;;;;;2.67;2.30;;;;;;;32.19;33.89;99121.78;5155847;27;43726;-78
2022/09/06 08:26:25;;;;;;;3.73;2.07;;;;;;;32.73;33.18;99124.50;5119919;27;42311;-79
2022/09/06 08:28:56;;;;;;;3.30;2.07;;;;;;;33.40;32.40;99130.66;5137379;27;39336;-79
2022/09/06 08:31:24;;;;;;;3.03;2.20;;;;;;;33.80;31.53;99124.50;5137926;27;41338;-77
2022/09/06 08:33:52;;;;;;;3.13;2.27;;;;;;;34.44;30.29;99142.75;5119260;27;43113;-78
2022/09/06 08:36:20;;;;;;;2.30;2.10;;;;;;;34.94;29.90;99147.59;5155892;27;42111;-78
2022/09/06 08:38:48;;;;;;;2.10;1.90;;;;;;;35.31;29.24;99136.19;5137376;27;38720;-79
2022/09/06 08:41:25;;;;;;;2.93;2.00;;;;;;;35.49;28.66;99138.69;5137499;27;42048;-78
2022/09/06 08:43:56;;;;;;;2.00;1.83;;;;;;;35.53;28.70;99128.84;5154318;27;43706;-78
2022/09/06 08:46:31;;;;;;;2.90;1.80;;;;;;;35.98;28.59;99131.47;5134405;27;42235;-77
2022/09/06 08:49:00;;;;;;;2.20;2.10;;;;;;;36.83;27.10;99146.72;5137373;27;39150;-77
2022/09/06 08:51:41;;;;;;;5.95;4.30;;;;;;;37.93;26.22;99145.25;5136977;27;42211;-78
2022/09/06 08:54:15;;;;;;;2.08;1.88;;;;;;;39.07;24.86;99147.19;5137276;27;42700;-78
2022/09/06 08:57:01;;;;;;;2.75;2.13;;;;;;;39.24;24.99;99131.13;5133779;27;42305;-78
2022/09/06 08:59:36;;;;;;;2.45;2.22;;;;;;;40.05;24.06;99145.00;5119667;27;40276;-79
2022/09/06 09:02:11;;;;;;;2.65;2.20;;;;;;;40.83;23.47;99142.50;5136137;27;40868;-78
2022/09/06 09:04:44;;;;;;;1.98;1.88;;;;;;;41.94;22.12;99139.97;5155098;27;42557;-78
2022/09/06 09:07:39;;;;;;;2.25;1.65;;;;;;;42.31;21.38;99151.28;5152185;27;43184;-80
2022/09/06 09:10:12;;;;;;;3.42;1.85;;;;;;;42.50;21.18;99136.63;5119694;27;40696;-78
2022/09/06 09:12:46;;;;;;;1.95;1.60;;;;;;;42.67;21.03;99136.94;5134289;27;42920;-77
2022/09/06 09:15:19;;;;;;;2.72;1.90;;;;;;;42.73;20.89;99146.06;5152212;27;43031;-78
2022/09/06 09:17:49;;;;;;;1.50;1.35;;;;;;;42.31;21.14;99134.59;5133412;27;43207;-80
2022/09/06 09:20:17;;;;;;;1.92;1.83;;;;;;;41.66;21.32;99133.34;5136633;27;40645;-79
2022/09/06 09:22:45;;;;;;;1.88;1.77;;;;;;;40.59;22.43;99118.44;5154705;27;41930;-77
2022/09/06 09:25:19;;;;;;;2.95;1.90;;;;;;;39.56;23.68;99110.66;5119184;27;41291;-78
2022/09/06 09:27:49;;;;;;;1.98;1.77;;;;;;;38.84;24.16;99097.78;5119078;27;43210;-78
2022/09/06 09:30:18;;;;;;;1.80;1.70;;;;;;;38.46;24.86;99102.63;5155034;27;39993;-79
2022/09/06 09:32:46;;;;;;;2.60;1.95;;;;;;;37.85;25.21;99084.88;5154863;27;41818;-77
2022/09/06 09:35:31;;;;;;;2.40;2.20;;;;;;;37.19;25.14;99084.41;5136306;27;42804;-79
2022/09/06 09:38:06;;;;;;;3.70;2.20;;;;;;;36.67;25.75;99090.47;5118911;27;42515;-79
2022/09/06 09:40:38;;;;;;;2.53;2.20;;;;;;;36.21;26.64;99075.28;5135864;27;41258;-76
2022/09/06 09:43:14;;;;;;;1.90;1.80;;;;;;;35.77;27.05;99079.91;5135822;27;40814;-78
2022/09/06 09:45:44;;;;;;;2.00;1.87;;;;;;;35.35;27.21;99079.53;5118956;27;41920;-78
2022/09/06 09:48:21;;;;;;;2.80;2.00;;;;;;;35.25;27.47;99071.88;5135944;27;42291;-77
2022/09/06 09:50:49;;;;;;;2.17;1.87;;;;;;;34.98;27.92;99068.97;5151836;27;40042;-78
2022/09/06 09:53:21;;;;;;;1.93;1.80;;;;;;;34.70;28.26;99068.97;5154586;27;42543;-79
2022/09/06 09:55:54;;;;;;;2.63;2.20;;;;;;;34.46;28.68;99063.56;5154594;27;41957;-80
2022/09/06 09:58:31;;;;;;;2.20;2.00;;;;;;;34.28;28.31;99046.41;5136249;27;41259;-77
2022/09/06 10:01:31;;;;;;;2.20;2.00;;;;;;;34.53;28.15;99057.91;5133353;27;39915;-78
2022/09/06 10:04:05;;;;;;;3.03;2.17;;;;;;;34.42;28.09;99045.03;5118244;27;43062;-77
2022/09/06 10:06:33;;;;;;;1.90;1.80;;;;;;;34.48;28.79;99044.91;5133105;27;42522;-78
2022/09/06 10:09:14;;;;;;;1.80;1.70;;;;;;;34.57;28.22;99048.94;5154068;27;42420;-77
2022/09/06 10:11:52;;;;;;;2.07;1.70;;;;;;;34.41;28.31;99049.69;5118318;27;41383;-78
2022/09/06 10:14:28;;;;;;;2.20;2.00;;;;;;;34.45;28.70;99048.16;5134102;27;41779;-78
2022/09/06 10:16:59;;;;;;;2.90;2.17;;;;;;;35.13;27.45;99049.94;5136000;27;42781;-79
2022/09/06 10:19:40;;;;;;;1.70;1.60;;;;;;;36.11;27.34;99044.78;5135507;27;41980;-79
2022/09/06 10:22:28;;;;;;;3.37;1.97;;;;;;;36.85;25.87;99028.53;5118392;27;38477;-79
2022/09/06 10:25:44;;;;;;;3.17;1.83;;;;;;;37.12;25.55;99043.16;5118135;27;41898;-77
2022/09/06 10:28:28;;;;;;;2.27;1.87;;;;;;;37.03;25.81;99028.16;5132999;27;42710;-79
2022/09/06 10:31:07;;;;;;;3.43;1.77;;;;;;;37.59;25.04;99037.72;5150938;27;43281;-76
2022/09/06 10:33:44;;;;;;;4.23;1.80;;;;;;;37.73;24.88;99032.56;5117784;27;38907;-77
2022/09/06 10:36:14;;;;;;;2.03;1.83;;;;;;;37.89;24.91;99039.84;5149797;27;41846;-78
2022/09/06 10:38:51;;;;;;;2.80;2.00;;;;;;;38.42;24.38;99047.03;5117399;27;42053;-78
2022/09/06 10:41:48;;;;;;;2.15;1.85;;;;;;;39.03;23.73;99041.63;5118462;27;42236;-77
2022/09/06 10:44:30;;;;;;;4.00;1.90;;;;;;;40.28;22.36;99053.88;5118103;27;39824;-78
2022/09/06 10:47:06;;;;;;;3.00;1.63;;;;;;;41.23;21.24;99049.69;5132036;27;42750;-78
2022/09/06 10:49:37;;;;;;;1.75;1.63;;;;;;;41.55;21.72;99043.56;5134265;27;43632;-79
2022/09/06 10:52:08;;;;;;;3.67;1.38;;;;;;;41.40;21.23;99040.09;5135018;27;43542;-78
2022/09/06 10:54:40;;;;;;;1.98;1.70;;;;;;;41.30;21.28;99045.78;5117821;27;39005;-78
2022/09/06 10:57:16;;;;;;;2.33;1.70;;;;;;;40.82;21.21;99051.09;5150008;27;41682;-77
2022/09/06 10:59:50;;;;;;;2.30;1.55;;;;;;;40.18;21.52;99043.66;5116688;27;42135;-77
2022/09/06 11:02:34;;;;;;;2.03;1.85;;;;;;;39.92;21.76;99037.38;5149712;27;42686;-78
2022/09/06 11:05:08;;;;;;;2.15;1.60;;;;;;;39.56;22.50;99030.25;5153197;27;41212;-79
2022/09/06 11:07:41;;;;;;;2.38;2.00;;;;;;;39.73;22.91;99014.94;5131711;27;42500;-77
2022/09/06 11:10:16;;;;;;;1.98;1.52;;;;;;;40.18;22.25;99030.59;5150160;27;42801;-78
2022/09/06 11:12:49;;;;;;;1.90;1.65;;;;;;;40.38;21.45;99023.31;5131116;27;43193;-78
2022/09/06 11:15:19;;;;;;;3.05;1.70;;;;;;;40.74;21.24;99032.28;5117372;27;39029;-78
2022/09/06 11:17:54;;;;;;;2.35;1.58;;;;;;;41.21;21.05;99034.44;5152724;27;42833;-80
2022/09/06 11:20:27;;;;;;;1.90;1.30;;;;;;;42.50;20.00;99044.72;5149850;27;43767;-80
2022/09/06 11:23:11;;;;;;;1.85;1.70;;;;;;;43.67;18.97;99043.66;5134498;27;44810;-79
2022/09/06 11:25:59;;;;;;;1.25;1.20;;;;;;;44.78;18.43;99050.84;5138156;27;40348;-77
2022/09/06 11:28:33;;;;;;;1.58;1.33;;;;;;;44.98;17.95;99042.81;5137594;27;41949;-80
2022/09/06 11:31:03;;;;;;;1.65;1.45;;;;;;;44.59;17.63;99048.22;5153995;27;43458;-77
2022/09/06 11:33:34;;;;;;;2.13;1.52;;;;;;;44.01;17.94;99043.31;5120703;27;42043;-77
2022/09/06 11:36:34;;;;;;;1.48;1.38;;;;;;;44.93;18.22;99034.53;5121269;27;38832;-79
2022/09/06 11:39:04;;;;;;;1.33;1.13;;;;;;;46.15;16.66;99043.31;5137743;27;41683;-77
2022/09/06 11:41:35;;;;;;;2.05;1.25;;;;;;;46.91;15.87;99045.78;5156455;27;42680;-77
2022/09/06 11:44:02;;;;;;;1.80;1.27;;;;;;;47.98;15.66;99036.47;5120511;27;42608;-78
2022/09/06 11:46:59;;;;;;;1.50;1.40;;;;;;;49.11;14.08;99043.78;5156939;27;40184;-79
2022/09/06 11:49:33;;;;;;;2.03;1.30;;;;;;;49.95;13.89;99036.75;5137949;27;42733;-79
2022/09/06 11:52:46;;;;;;;5.65;1.38;;;;;;;51.05;13.10;99047.91;5120528;27;41657;-78
2022/09/06 11:55:18;;;;;;;2.05;1.38;;;;;;;51.91;12.24;99040.59;5140295;27;42277;-79